createdAt,value
2022-11-01T00:01:21.796Z,23.10
2022-11-01T00:03:50.129Z,23.20
2022-11-01T00:06:18.461Z,23.30
2022-11-01T00:08:46.592Z,23.40
2022-11-01T00:11:17.411Z,23.50
2022-11-01T00:13:47.463Z,23.60
2022-11-01T00:16:16.850Z,23.70
2022-11-01T00:18:45.062Z,23.60
2022-11-01T00:21:14.165Z,23.30
2022-11-01T00:23:42.799Z,23.10
2022-11-01T00:26:14.703Z,22.90
2022-11-01T00:28:43.095Z,23.00
2022-11-01T00:31:12.851Z,23.20
2022-11-01T00:33:41.562Z,23.30
2022-11-01T00:36:10.080Z,23.40
2022-11-01T00:38:38.680Z,23.40
2022-11-01T00:41:15.463Z,23.60
2022-11-01T00:43:43.603Z,23.60
2022-11-01T00:46:11.919Z,23.80
2022-11-01T00:48:39.959Z,23.60
2022-11-01T00:51:08.117Z,23.20
2022-11-01T00:53:36.250Z,23.00
2022-11-01T00:56:06.751Z,22.80
2022-11-01T00:58:35.305Z,22.80
2022-11-01T01:01:03.605Z,22.70
2022-11-01T01:03:31.662Z,23.00
2022-11-01T01:05:59.934Z,23.10
2022-11-01T01:08:28.687Z,23.20
2022-11-01T01:10:56.608Z,23.30
2022-11-01T01:13:25.095Z,23.40
2022-11-01T01:15:53.209Z,23.50
2022-11-01T01:18:21.382Z,23.60
2022-11-01T01:20:49.614Z,23.70
2022-11-01T01:23:17.785Z,23.60
2022-11-01T01:25:45.944Z,23.30
2022-11-01T01:28:14.071Z,23.10
2022-11-01T01:30:42.756Z,22.90
2022-11-01T01:35:40.348Z,22.70
2022-11-01T01:38:08.873Z,22.80
2022-11-01T01:40:37.030Z,23.00
2022-11-01T01:43:05.243Z,23.10
2022-11-01T01:45:39.812Z,23.20
2022-11-01T01:48:13.929Z,23.30
2022-11-01T01:50:58.869Z,23.40
2022-11-01T01:53:42.952Z,23.50
2022-11-01T01:56:34.390Z,23.60
2022-11-01T01:59:07.010Z,23.70
2022-11-01T02:01:38.177Z,23.40
2022-11-01T02:04:17.079Z,23.10
2022-11-01T02:06:45.309Z,22.90
2022-11-01T02:09:13.663Z,22.70
2022-11-01T02:11:41.781Z,22.80
2022-11-01T02:14:10.595Z,23.00
2022-11-01T02:16:47.493Z,23.10
2022-11-01T02:19:33.843Z,23.20
2022-11-01T02:25:33.258Z,23.50
2022-11-01T02:28:23.349Z,23.50
2022-11-01T02:31:14.436Z,23.60
2022-11-01T02:33:47.511Z,23.60
2022-11-01T02:36:24.260Z,23.40
2022-11-01T02:39:09.669Z,23.10
2022-11-01T02:41:45.575Z,22.90
2022-11-01T02:44:19.343Z,22.70
2022-11-01T02:46:48.736Z,22.80
2022-11-01T02:49:18.303Z,23.10
2022-11-01T02:51:47.749Z,23.20
2022-11-01T02:54:24.032Z,23.30
2022-11-01T02:56:52.660Z,23.40
2022-11-01T02:59:29.705Z,23.50
2022-11-01T03:02:11.010Z,23.50
2022-11-01T03:04:39.257Z,23.60
2022-11-01T03:07:11.678Z,23.60
2022-11-01T03:09:42.086Z,23.40
2022-11-01T03:12:26.358Z,23.10
2022-11-01T03:15:18.290Z,22.80
2022-11-01T03:18:12.409Z,22.70
2022-11-01T03:20:48.932Z,22.80
2022-11-01T03:23:24.154Z,23.00
2022-11-01T03:25:57.799Z,23.20
2022-11-01T03:28:45.905Z,23.30
2022-11-01T03:31:20.506Z,23.30
2022-11-01T03:33:57.034Z,23.50
2022-11-01T03:36:30.908Z,23.50
2022-11-01T03:39:15.347Z,23.60
2022-11-01T03:41:47.468Z,23.70
2022-11-01T03:44:15.888Z,23.60
2022-11-01T03:46:44.150Z,23.20
2022-11-01T03:49:17.869Z,23.00
2022-11-01T03:51:46.846Z,22.80
2022-11-01T03:54:14.993Z,22.70
2022-11-01T03:56:43.109Z,22.70
2022-11-01T03:59:11.865Z,22.90
2022-11-01T04:01:40.148Z,23.00
2022-11-01T04:04:08.432Z,23.10
2022-11-01T04:06:36.584Z,23.20
2022-11-01T04:09:04.884Z,23.30
2022-11-01T04:11:33.035Z,23.40
2022-11-01T04:14:01.289Z,23.50
2022-11-01T04:16:29.283Z,23.50
2022-11-01T04:18:57.411Z,23.60
2022-11-01T04:21:26.926Z,23.60
2022-11-01T04:23:55.238Z,23.30
2022-11-01T04:26:24.729Z,23.00
2022-11-01T04:28:52.863Z,22.80
2022-11-01T04:31:20.978Z,22.80
2022-11-01T04:33:49.114Z,23.00
2022-11-01T04:36:17.181Z,23.10
2022-11-01T04:38:45.504Z,23.20
2022-11-01T04:41:13.626Z,23.30
2022-11-01T04:43:41.731Z,23.40
2022-11-01T04:46:09.872Z,23.40
2022-11-01T04:48:37.982Z,23.50
2022-11-01T04:51:06.303Z,23.60
2022-11-01T04:53:34.551Z,23.60
2022-11-01T04:56:04.433Z,23.40
2022-11-01T04:58:33.384Z,23.10
2022-11-01T05:01:08.214Z,22.80
2022-11-01T05:03:36.578Z,22.70
2022-11-01T05:06:04.742Z,22.70
2022-11-01T05:08:32.993Z,23.00
2022-11-01T05:11:01.119Z,23.10
2022-11-01T05:13:29.344Z,23.20
2022-11-01T05:16:18.365Z,23.30
2022-11-01T05:18:45.711Z,23.30
2022-11-01T05:21:13.850Z,23.40
2022-11-01T05:23:41.862Z,23.50
2022-11-01T05:26:10.086Z,23.50
2022-11-01T05:28:38.210Z,23.60
2022-11-01T05:31:06.418Z,23.60
2022-11-01T05:33:34.664Z,23.30
2022-11-01T05:36:02.975Z,23.00
2022-11-01T05:38:31.169Z,22.80
2022-11-01T05:41:01.845Z,22.70
2022-11-01T05:43:30.246Z,22.90
2022-11-01T05:45:58.265Z,23.10
2022-11-01T05:48:26.360Z,23.20
2022-11-01T05:50:54.440Z,23.20
2022-11-01T05:53:22.576Z,23.30
2022-11-01T05:55:50.822Z,23.40
2022-11-01T05:58:19.130Z,23.40
2022-11-01T06:00:47.158Z,23.50
2022-11-01T06:03:15.312Z,23.60
2022-11-01T06:05:43.514Z,23.60
2022-11-01T06:08:11.520Z,23.40
2022-11-01T06:14:27.047Z,22.80
2022-11-01T06:16:55.209Z,23.10
2022-11-01T06:19:23.460Z,23.10
2022-11-01T06:21:51.576Z,23.20
2022-11-01T06:24:19.759Z,23.30
2022-11-01T06:26:47.995Z,23.30
2022-11-01T06:29:16.172Z,23.40
2022-11-01T06:31:44.293Z,23.40
2022-11-01T06:34:12.592Z,23.50
2022-11-01T06:36:40.641Z,23.50
2022-11-01T06:39:08.916Z,23.60
2022-11-01T06:41:37.055Z,23.50
2022-11-01T06:44:05.402Z,23.20
2022-11-01T06:46:33.523Z,23.00
2022-11-01T06:49:01.830Z,22.80
2022-11-01T06:51:29.975Z,22.80
2022-11-01T06:53:58.203Z,22.90
2022-11-01T06:56:26.554Z,23.10
2022-11-01T06:58:54.662Z,23.20
2022-11-01T07:01:22.934Z,23.30
2022-11-01T07:03:52.497Z,23.30
2022-11-01T07:06:20.899Z,23.40
2022-11-01T07:08:49.105Z,23.50
2022-11-01T07:11:17.129Z,23.50
2022-11-01T07:13:45.356Z,23.60
2022-11-01T07:16:13.502Z,23.50
2022-11-01T07:18:41.696Z,23.20
2022-11-01T07:21:10.026Z,23.00
2022-11-01T07:23:38.413Z,22.70
2022-11-01T07:26:06.660Z,22.60
2022-11-01T07:28:34.663Z,22.70
2022-11-01T07:31:03.138Z,22.90
2022-11-01T07:33:31.378Z,23.00
2022-11-01T07:36:01.048Z,23.10
2022-11-01T07:38:29.072Z,23.20
2022-11-01T07:40:57.274Z,23.30
2022-11-01T07:43:25.401Z,23.40
2022-11-01T07:45:53.546Z,23.40
2022-11-01T07:48:21.767Z,23.50
2022-11-01T07:50:49.953Z,23.60
2022-11-01T07:53:19.584Z,23.50
2022-11-01T07:55:48.180Z,23.20
2022-11-01T07:58:17.101Z,23.00
2022-11-01T08:03:09.357Z,22.60
2022-11-01T08:05:38.031Z,22.70
2022-11-01T08:08:06.640Z,22.90
2022-11-01T08:10:36.331Z,23.00
2022-11-01T08:13:14.339Z,23.10
2022-11-01T08:15:42.580Z,23.20
2022-11-01T08:18:10.852Z,23.30
2022-11-01T08:20:39.138Z,23.30
2022-11-01T08:23:07.627Z,23.40
2022-11-01T08:25:35.820Z,23.50
2022-11-01T08:28:09.071Z,23.50
2022-11-01T08:30:39.994Z,23.50
2022-11-01T08:33:08.235Z,23.30
2022-11-01T08:35:36.608Z,23.00
2022-11-01T08:38:05.196Z,22.80
2022-11-01T08:40:34.571Z,22.60
2022-11-01T08:43:02.956Z,22.80
2022-11-01T08:45:31.391Z,23.00
2022-11-01T08:48:00.867Z,23.10
2022-11-01T08:50:29.737Z,23.20
2022-11-01T08:52:57.440Z,23.20
2022-11-01T08:55:25.587Z,23.30
2022-11-01T08:57:53.757Z,23.30
2022-11-01T09:00:22.043Z,23.40
2022-11-01T09:02:50.285Z,23.40
2022-11-01T09:05:19.010Z,23.50
2022-11-01T09:07:46.919Z,23.40
2022-11-01T09:10:16.724Z,23.20
2022-11-01T09:12:45.023Z,23.00
2022-11-01T09:15:13.063Z,22.80
2022-11-01T09:17:41.297Z,22.70
2022-11-01T09:20:09.475Z,22.50
2022-11-01T09:22:38.174Z,22.50
2022-11-01T09:25:06.784Z,22.70
2022-11-01T09:27:34.850Z,22.90
2022-11-01T09:30:04.641Z,23.00
2022-11-01T09:32:32.818Z,23.10
2022-11-01T09:35:00.833Z,23.20
2022-11-01T09:37:29.136Z,23.20
2022-11-01T09:39:57.166Z,23.30
2022-11-01T09:42:31.524Z,23.40
2022-11-01T09:45:04.604Z,23.40
2022-11-01T09:47:33.701Z,23.50
2022-11-01T09:50:20.949Z,23.50
2022-11-01T09:52:51.402Z,23.30
2022-11-01T09:55:41.797Z,23.10
2022-11-01T09:58:40.569Z,22.80
2022-11-01T10:01:27.337Z,22.60
2022-11-01T10:04:34.800Z,22.80
2022-11-01T10:07:19.808Z,23.00
2022-11-01T10:09:54.025Z,23.10
2022-11-01T10:12:53.580Z,23.20
2022-11-01T10:15:58.488Z,23.20
2022-11-01T10:18:32.039Z,23.30
2022-11-01T10:21:12.843Z,23.40
2022-11-01T10:23:54.559Z,23.40
2022-11-01T10:26:32.994Z,23.50
2022-11-01T10:29:11.930Z,23.50
2022-11-01T10:31:46.757Z,23.20
2022-11-01T10:34:14.953Z,22.90
2022-11-01T10:36:44.688Z,22.70
2022-11-01T10:39:56.366Z,22.60
2022-11-01T10:42:28.490Z,22.80
2022-11-01T10:45:00.887Z,23.00
2022-11-01T10:47:29.696Z,23.10
2022-11-01T10:50:20.303Z,23.10
2022-11-01T10:52:57.078Z,23.20
2022-11-01T10:55:42.798Z,23.30
2022-11-01T10:58:34.079Z,23.40
2022-11-01T11:01:06.363Z,23.50
2022-11-01T11:03:35.138Z,23.50
2022-11-01T11:06:10.430Z,23.50
2022-11-01T11:08:41.896Z,23.20
2022-11-01T11:11:17.111Z,23.00
2022-11-01T11:13:49.032Z,22.80
2022-11-01T11:16:46.059Z,22.60
2022-11-01T11:19:23.122Z,22.50
2022-11-01T11:21:54.824Z,22.40
2022-11-01T11:24:26.385Z,22.70
2022-11-01T11:26:57.333Z,22.80
2022-11-01T11:29:37.162Z,23.00
2022-11-01T11:32:13.759Z,23.10
2022-11-01T11:34:42.690Z,23.20
2022-11-01T11:37:20.877Z,23.20
2022-11-01T11:40:07.400Z,23.30
2022-11-01T11:42:35.674Z,23.40
2022-11-01T11:45:24.099Z,23.40
2022-11-01T11:47:52.655Z,23.60
2022-11-01T11:50:20.733Z,23.40
2022-11-01T11:52:51.424Z,23.10
2022-11-01T11:55:39.425Z,22.90
2022-11-01T11:58:27.532Z,22.70
2022-11-01T12:01:01.447Z,22.60
2022-11-01T12:03:30.545Z,22.50
2022-11-01T12:06:07.346Z,22.50
2022-11-01T12:08:46.029Z,22.50
2022-11-01T12:11:15.342Z,22.40
2022-11-01T12:14:07.411Z,22.30
2022-11-01T12:16:42.535Z,22.30
2022-11-01T12:19:32.868Z,22.30
2022-11-01T12:22:03.126Z,22.20
2022-11-01T12:24:44.805Z,22.20
2022-11-01T12:27:22.545Z,22.50
2022-11-01T12:30:01.543Z,22.60
2022-11-01T12:32:33.657Z,22.80
2022-11-01T12:35:06.974Z,22.90
2022-11-01T12:37:56.668Z,23.00
2022-11-01T12:40:32.774Z,23.10
2022-11-01T12:43:23.931Z,23.10
2022-11-01T12:46:02.764Z,23.20
2022-11-01T12:48:44.739Z,23.30
2022-11-01T12:51:45.828Z,23.40
2022-11-01T12:54:22.400Z,23.40
2022-11-01T12:56:50.658Z,23.10
2022-11-01T12:59:27.048Z,22.80
2022-11-01T13:02:11.493Z,22.60
2022-11-01T13:04:58.654Z,22.60
2022-11-01T13:07:26.737Z,22.40
2022-11-01T13:10:06.948Z,22.40
2022-11-01T13:13:06.164Z,22.40
2022-11-01T13:16:02.340Z,22.30
2022-11-01T13:19:13.472Z,22.30
2022-11-01T13:21:58.710Z,22.20
2022-11-01T13:24:49.927Z,22.20
2022-11-01T13:27:37.834Z,22.10
2022-11-01T13:30:09.698Z,22.10
2022-11-01T13:33:04.238Z,22.20
2022-11-01T13:35:58.551Z,22.40
2022-11-01T13:39:02.140Z,22.70
2022-11-01T13:41:47.405Z,22.80
2022-11-01T13:44:26.061Z,22.90
2022-11-01T13:47:14.093Z,23.00
2022-11-01T13:50:06.995Z,23.10
2022-11-01T13:52:41.381Z,23.20
2022-11-01T13:55:35.085Z,23.30
2022-11-01T13:58:06.468Z,23.40
2022-11-01T14:00:41.713Z,23.20
2022-11-01T14:03:23.731Z,23.00
2022-11-01T14:09:33.195Z,22.60
2022-11-01T14:12:07.227Z,22.40
2022-11-01T14:14:35.459Z,22.40
2022-11-01T14:17:21.496Z,22.40
2022-11-01T14:19:58.911Z,22.30
2022-11-01T14:22:29.360Z,22.30
2022-11-01T14:25:14.000Z,22.30
2022-11-01T14:27:50.391Z,22.40
2022-11-01T14:30:24.016Z,22.50
2022-11-01T14:33:03.939Z,22.60
2022-11-01T14:35:39.826Z,22.60
2022-11-01T14:38:16.511Z,22.80
2022-11-01T14:40:55.148Z,22.90
2022-11-01T14:43:34.892Z,23.00
2022-11-01T14:46:16.397Z,23.10
2022-11-01T14:49:00.751Z,23.20
2022-11-01T14:51:37.038Z,23.30
2022-11-01T14:54:19.950Z,23.40
2022-11-01T14:56:53.267Z,23.40
2022-11-01T14:59:24.366Z,23.20
2022-11-01T15:02:01.143Z,23.00
2022-11-01T15:04:39.167Z,23.00
2022-11-01T15:07:29.642Z,23.10
2022-11-01T15:10:11.594Z,23.20
2022-11-01T15:12:59.851Z,23.30
2022-11-01T15:15:35.823Z,23.40
2022-11-01T15:18:16.751Z,23.50
2022-11-01T15:20:53.154Z,23.20
2022-11-01T15:23:38.328Z,23.00
2022-11-01T15:26:11.924Z,22.80
2022-11-01T15:28:54.276Z,22.70
2022-11-01T15:31:22.915Z,22.60
2022-11-01T15:34:03.064Z,22.50
2022-11-01T15:36:34.164Z,22.50
2022-11-01T15:39:05.278Z,22.40
2022-11-01T15:41:35.332Z,22.40
2022-11-01T15:44:06.739Z,22.40
2022-11-01T15:46:40.400Z,22.30
2022-11-01T15:49:13.156Z,22.30
2022-11-01T15:51:57.289Z,22.30
2022-11-01T15:54:37.943Z,22.20
2022-11-01T15:57:14.084Z,22.20
2022-11-01T16:00:15.604Z,22.20
2022-11-01T16:03:31.035Z,22.40
2022-11-01T16:06:03.174Z,22.70
2022-11-01T16:08:41.315Z,22.90
2022-11-01T16:11:09.999Z,23.00
2022-11-01T16:13:38.354Z,23.10
2022-11-01T16:16:11.027Z,23.20
2022-11-01T16:18:43.598Z,23.20
2022-11-01T16:21:20.817Z,23.30
2022-11-01T16:24:10.263Z,23.40
2022-11-01T16:26:58.588Z,23.30
2022-11-01T16:29:59.315Z,23.00
2022-11-01T16:32:29.593Z,22.80
2022-11-01T16:34:57.793Z,22.70
2022-11-01T16:37:28.855Z,22.60
2022-11-01T16:39:57.628Z,22.60
2022-11-01T16:42:25.491Z,22.50
2022-11-01T16:44:56.815Z,22.50
2022-11-01T16:47:25.142Z,22.50
2022-11-01T16:49:54.522Z,22.50
2022-11-01T16:52:23.035Z,22.50
2022-11-01T16:54:51.645Z,22.60
2022-11-01T16:57:27.289Z,22.70
2022-11-01T16:59:56.551Z,22.70
2022-11-01T17:02:27.623Z,22.80
2022-11-01T17:05:07.393Z,23.00
2022-11-01T17:07:35.696Z,23.10
2022-11-01T17:10:36.865Z,23.20
2022-11-01T17:13:05.169Z,23.20
2022-11-01T17:15:39.327Z,23.10
2022-11-01T17:18:13.029Z,22.80
2022-11-01T17:20:42.625Z,22.90
2022-11-01T17:23:17.721Z,23.10
2022-11-01T17:25:49.196Z,23.20
2022-11-01T17:28:20.864Z,23.20
2022-11-01T17:30:49.210Z,23.30
2022-11-01T17:33:17.688Z,23.50
2022-11-01T17:35:45.849Z,23.30
2022-11-01T17:38:34.705Z,23.10
2022-11-01T17:41:04.975Z,22.80
2022-11-01T17:43:33.139Z,22.70
2022-11-01T17:46:01.390Z,22.60
2022-11-01T17:48:29.550Z,22.60
2022-11-01T17:51:01.548Z,22.50
2022-11-01T17:53:30.099Z,22.50
2022-11-01T17:55:58.695Z,22.50
2022-11-01T17:58:26.792Z,22.60
2022-11-01T18:00:55.099Z,22.70
2022-11-01T18:03:23.462Z,22.70
2022-11-01T18:05:51.954Z,22.80
2022-11-01T18:08:22.252Z,23.00
2022-11-01T18:11:01.978Z,23.10
2022-11-01T18:14:06.914Z,23.10
2022-11-01T18:16:47.257Z,23.30
2022-11-01T18:19:33.539Z,23.40
2022-11-01T18:22:22.861Z,23.50
2022-11-01T18:25:20.166Z,23.40
2022-11-01T18:27:48.339Z,23.00
2022-11-01T18:30:19.062Z,23.00
2022-11-01T18:33:03.413Z,23.10
2022-11-01T18:35:36.848Z,23.20
2022-11-01T18:38:29.574Z,23.30
2022-11-01T18:41:03.101Z,23.50
2022-11-01T18:43:36.020Z,23.50
2022-11-01T18:46:26.696Z,23.30
2022-11-01T18:49:00.933Z,23.00
2022-11-01T18:51:34.338Z,22.80
2022-11-01T18:54:11.438Z,22.70
2022-11-01T18:56:49.005Z,22.60
2022-11-01T18:59:23.589Z,22.50
2022-11-01T19:02:00.886Z,22.60
2022-11-01T19:04:32.981Z,22.90
2022-11-01T19:07:13.141Z,23.00
2022-11-01T19:09:54.289Z,23.20
2022-11-01T19:12:35.684Z,23.20
2022-11-01T19:15:25.220Z,23.30
2022-11-01T19:17:56.673Z,23.40
2022-11-01T19:20:30.823Z,23.60
2022-11-01T19:23:01.267Z,23.40
2022-11-01T19:25:35.858Z,23.10
2022-11-01T19:28:13.245Z,22.90
2022-11-01T19:30:47.506Z,22.70
2022-11-01T19:33:37.520Z,22.60
2022-11-01T19:36:15.123Z,22.80
2022-11-01T19:38:43.415Z,23.00
2022-11-01T19:41:15.649Z,23.10
2022-11-01T19:43:43.791Z,23.30
2022-11-01T19:46:40.896Z,23.30
2022-11-01T19:49:42.133Z,23.40
2022-11-01T19:52:10.323Z,23.50
2022-11-01T19:54:42.017Z,23.60
2022-11-01T20:00:02.284Z,23.30
2022-11-01T20:02:40.004Z,23.00
2022-11-01T20:05:33.801Z,22.80
2022-11-01T20:08:22.160Z,22.70
2022-11-01T20:10:50.310Z,22.70
2022-11-01T20:13:18.598Z,23.00
2022-11-01T20:15:46.654Z,23.10
2022-11-01T20:18:14.811Z,23.20
2022-11-01T20:20:43.039Z,23.30
2022-11-01T20:23:25.695Z,23.40
2022-11-01T20:25:54.283Z,23.50
2022-11-01T20:28:22.581Z,23.60
2022-11-01T20:30:50.616Z,23.60
2022-11-01T20:33:18.830Z,23.60
2022-11-01T20:35:47.058Z,23.30
2022-11-01T20:38:15.238Z,23.00
2022-11-01T20:40:43.645Z,22.80
2022-11-01T20:43:11.903Z,22.70
2022-11-01T20:45:40.183Z,22.60
2022-11-01T20:48:08.464Z,22.50
2022-11-01T20:50:36.642Z,22.70
2022-11-01T20:53:05.151Z,22.90
2022-11-01T20:55:33.971Z,23.10
2022-11-01T20:58:02.681Z,23.20
2022-11-01T21:00:31.165Z,23.30
2022-11-01T21:03:01.651Z,23.40
2022-11-01T21:05:31.564Z,23.40
2022-11-01T21:08:11.792Z,23.50
2022-11-01T21:10:41.695Z,23.60
2022-11-01T21:13:27.225Z,23.60
2022-11-01T21:15:57.777Z,23.30
2022-11-01T21:18:28.747Z,23.00
2022-11-01T21:20:57.864Z,22.80
2022-11-01T21:23:35.125Z,22.70
2022-11-01T21:26:18.721Z,23.00
2022-11-01T21:29:03.804Z,23.10
2022-11-01T21:31:39.560Z,23.30
2022-11-01T21:34:10.765Z,23.30
2022-11-01T21:36:44.013Z,23.40
2022-11-01T21:39:26.078Z,23.50
2022-11-01T21:42:04.432Z,23.60
2022-11-01T21:44:44.997Z,23.70
2022-11-01T21:47:23.442Z,23.50
2022-11-01T21:49:51.689Z,23.20
2022-11-01T21:52:20.097Z,23.00
2022-11-01T21:54:49.125Z,22.80
2022-11-01T21:57:18.721Z,22.70
2022-11-01T21:59:47.045Z,22.70
2022-11-01T22:02:16.066Z,22.90
2022-11-01T22:04:45.408Z,23.10
2022-11-01T22:07:13.843Z,23.20
2022-11-01T22:09:42.111Z,23.30
2022-11-01T22:12:10.351Z,23.40
2022-11-01T22:14:38.623Z,23.40
2022-11-01T22:17:06.797Z,23.50
2022-11-01T22:19:35.032Z,23.60
2022-11-01T22:22:03.302Z,23.60
2022-11-01T22:24:31.352Z,23.40
2022-11-01T22:26:59.669Z,23.20
2022-11-01T22:29:27.786Z,23.00
2022-11-01T22:31:55.964Z,22.80
2022-11-01T22:34:24.218Z,22.80
2022-11-01T22:36:52.382Z,23.00
2022-11-01T22:39:26.625Z,23.20
2022-11-01T22:41:55.618Z,23.30
2022-11-01T22:44:30.540Z,23.40
2022-11-01T22:47:01.683Z,23.40
2022-11-01T22:49:50.346Z,23.50
2022-11-01T22:52:35.242Z,23.60
2022-11-01T22:55:12.832Z,23.70
2022-11-01T22:57:55.184Z,23.50
2022-11-01T23:00:37.445Z,23.20
2022-11-01T23:03:23.639Z,23.00
2022-11-01T23:05:57.646Z,22.80
2022-11-01T23:08:35.605Z,22.70
2022-11-01T23:11:04.757Z,22.60
2022-11-01T23:13:37.072Z,22.80
2022-11-01T23:16:29.245Z,23.00
2022-11-01T23:19:00.547Z,23.10
2022-11-01T23:21:29.343Z,23.20
2022-11-01T23:23:57.124Z,23.30
2022-11-01T23:26:25.657Z,23.40
2022-11-01T23:28:56.729Z,23.50
2022-11-01T23:31:27.338Z,23.50
2022-11-01T23:33:55.723Z,23.60
2022-11-01T23:36:23.701Z,23.40
2022-11-01T23:39:00.393Z,23.10
2022-11-01T23:41:43.107Z,22.90
2022-11-01T23:44:29.064Z,22.70
2022-11-01T23:47:09.966Z,22.60
2022-11-01T23:49:38.263Z,22.90
2022-11-01T23:52:26.132Z,23.00
2022-11-01T23:54:54.453Z,23.10
2022-11-01T23:57:22.612Z,23.20
2022-11-01T23:59:51.404Z,23.30
